KOMA

Eppley Airfield Airport

Omaha, Nebraska, USA
METAR KOMA 231352Z 17012KT 10SM FEW250 24/19 A3006 RMK AO2 SLP171 T02440189
Observed Flight Rules
May-23 @ 13:52 UTC (an hour ago) Visual Flight Rules
Wind Visibility Clouds
170° at 12 knots 10 miles
  • Few at 25,000' AGL
Temperatures Readings
Current 24°C / 75°F
Dewpoint 19°C / 66°F
Humidity 74%
Altimeter 30.06" Hg
Pressure 1017.1 hPa
Elevation 312
METAR KOMA 231352Z 17012KT 10SM FEW250 24/19 A3006 RMK AO2 SLP171 T02440189
Observed Flight Rules
May-23 @ 13:52 UTC
(an hour ago)
VFR
Wind Visibility
170° at 12 knots 10 miles
Clouds
  • Few at 25,000' AGL
Temperature Dewpoint
24°C / 75°F 19°C / 66°F
Humidity Altimeter Pressure
74% 30.06" Hg 1017.1 hPa